createdAt,value
2023-02-19T00:00:00.174Z,79624.88
2023-02-19T00:01:35.653Z,79628.84
2023-02-19T00:03:08.655Z,79628.84
2023-02-19T00:04:41.759Z,79662.50
2023-02-19T00:06:14.749Z,79620.94
2023-02-19T00:07:47.701Z,79626.88
2023-02-19T00:09:23.250Z,79632.81
2023-02-19T00:11:01.469Z,79630.81
2023-02-19T00:12:34.419Z,79642.69
2023-02-19T00:14:07.656Z,79650.63
2023-02-19T00:15:40.674Z,79650.63
2023-02-19T00:17:13.861Z,79646.66
2023-02-19T00:18:47.455Z,79646.66
2023-02-19T00:20:20.346Z,79654.56
2023-02-19T00:21:54.188Z,79644.69
2023-02-19T00:23:28.440Z,79650.63
2023-02-19T00:25:01.324Z,79650.63
2023-02-19T00:26:35.749Z,79654.56
2023-02-19T00:28:09.110Z,79664.47
2023-02-19T00:29:42.091Z,79682.28
2023-02-19T00:31:19.506Z,79698.09
2023-02-19T00:32:52.610Z,79700.09
2023-02-19T00:34:25.820Z,79702.06
2023-02-19T00:36:03.643Z,79704.03
2023-02-19T00:37:36.524Z,79706.03
2023-02-19T00:39:15.927Z,79704.03
2023-02-19T00:40:49.104Z,79711.97
2023-02-19T00:42:22.226Z,79731.75
2023-02-19T00:43:57.012Z,79713.94
2023-02-19T00:45:29.994Z,79709.97
2023-02-19T00:47:03.059Z,79715.91
2023-02-19T00:48:37.019Z,79717.91
2023-02-19T00:50:10.360Z,79735.72
2023-02-19T00:51:43.350Z,79745.59
2023-02-19T00:53:16.439Z,79745.59
2023-02-19T00:54:49.624Z,79745.59
2023-02-19T00:56:22.748Z,79749.56
2023-02-19T00:57:55.580Z,79743.63
2023-02-19T00:59:28.770Z,79741.66
2023-02-19T01:01:02.038Z,79731.75
2023-02-19T01:02:35.018Z,79747.59
2023-02-19T01:04:08.010Z,79749.56
2023-02-19T01:05:41.252Z,79747.59
2023-02-19T01:07:14.365Z,79749.56
2023-02-19T01:08:47.886Z,79967.25
2023-02-19T01:10:20.770Z,79745.59
2023-02-19T01:11:53.955Z,79791.13
2023-02-19T01:13:28.734Z,79735.72
2023-02-19T01:15:02.088Z,79733.72
2023-02-19T01:16:37.098Z,79731.75
2023-02-19T01:18:10.410Z,79757.47
2023-02-19T01:19:43.373Z,79735.72
2023-02-19T01:21:19.682Z,79725.81
2023-02-19T01:22:53.016Z,79733.72
2023-02-19T01:24:26.275Z,79725.81
2023-02-19T01:25:59.594Z,79721.84
2023-02-19T01:27:32.455Z,79713.94
2023-02-19T01:29:05.588Z,79713.94
2023-02-19T01:30:39.954Z,79711.97
2023-02-19T01:32:13.064Z,79708.00
2023-02-19T01:33:47.812Z,79711.97
2023-02-19T01:35:20.709Z,79715.91
2023-02-19T01:36:54.030Z,79709.97
2023-02-19T01:38:27.137Z,79702.06
2023-02-19T01:40:00.166Z,79709.97
2023-02-19T01:41:36.893Z,79717.91
2023-02-19T01:43:16.793Z,79711.97
2023-02-19T01:44:49.906Z,79717.91
2023-02-19T01:46:29.795Z,79721.84
2023-02-19T01:48:16.705Z,79717.91
2023-02-19T01:49:57.409Z,79729.78
2023-02-19T01:51:33.275Z,79753.53
2023-02-19T01:53:09.820Z,79741.66
2023-02-19T01:54:45.294Z,79745.59
2023-02-19T01:56:20.773Z,79751.53
2023-02-19T01:57:56.634Z,79759.47
2023-02-19T01:59:29.520Z,79757.47
2023-02-19T02:01:06.400Z,79765.41
2023-02-19T02:02:42.049Z,79771.31
2023-02-19T02:04:18.009Z,79759.47
2023-02-19T02:06:07.553Z,79755.50
2023-02-19T02:07:59.482Z,79820.81
2023-02-19T02:09:50.730Z,79743.63
2023-02-19T02:11:23.745Z,79733.72
2023-02-19T02:12:58.921Z,79721.84
2023-02-19T02:14:37.027Z,79717.91
2023-02-19T02:16:15.841Z,79709.97
2023-02-19T02:17:57.520Z,79719.88
2023-02-19T02:19:32.682Z,79723.84
2023-02-19T02:21:32.595Z,79803.00
2023-02-19T02:23:30.329Z,79704.03
2023-02-19T02:25:22.731Z,79702.06
2023-02-19T02:27:16.185Z,79696.13
2023-02-19T02:29:12.604Z,79698.09
2023-02-19T02:30:56.786Z,79706.03
2023-02-19T02:32:39.502Z,79709.97
2023-02-19T02:34:19.546Z,79696.13
2023-02-19T02:36:01.468Z,79698.09
2023-02-19T02:37:38.534Z,79702.06
2023-02-19T02:39:16.149Z,79913.81
2023-02-19T02:40:50.015Z,79717.91
2023-02-19T02:42:29.125Z,79733.72
2023-02-19T02:44:10.060Z,79735.72
2023-02-19T02:45:43.331Z,79753.53
2023-02-19T02:47:40.418Z,79761.44
2023-02-19T02:49:20.544Z,79761.44
2023-02-19T02:51:02.534Z,79771.31
2023-02-19T02:53:01.917Z,79771.31
2023-02-19T02:54:54.646Z,79771.31
2023-02-19T02:56:31.155Z,79769.34
2023-02-19T02:58:04.842Z,79769.34
2023-02-19T02:59:40.099Z,79783.19
2023-02-19T03:01:41.620Z,79785.19
2023-02-19T03:03:18.175Z,79781.22
2023-02-19T03:05:28.603Z,79771.31
2023-02-19T03:07:08.227Z,79771.31
2023-02-19T03:08:52.919Z,79775.28
2023-02-19T03:10:33.456Z,79789.13
2023-02-19T03:12:30.849Z,79793.09
2023-02-19T03:14:40.152Z,79808.94
2023-02-19T03:16:42.662Z,79816.84
2023-02-19T03:18:37.952Z,79820.81
2023-02-19T03:20:16.391Z,79969.22
2023-02-19T03:22:01.385Z,79836.63
2023-02-19T03:23:55.182Z,79840.59
2023-02-19T03:25:51.579Z,79848.50
2023-02-19T03:27:35.118Z,79866.31
2023-02-19T03:29:26.380Z,79866.31
2023-02-19T03:31:10.785Z,79862.38
2023-02-19T03:33:08.709Z,79856.44
2023-02-19T03:34:49.307Z,79848.50
2023-02-19T03:36:26.881Z,79844.56
2023-02-19T03:38:18.918Z,79842.56
2023-02-19T03:39:55.574Z,79826.75
2023-02-19T03:41:43.906Z,79820.81
2023-02-19T03:43:37.883Z,79810.91
2023-02-19T03:45:25.939Z,79799.03
2023-02-19T03:47:05.179Z,79797.06
2023-02-19T03:49:19.179Z,79789.13
2023-02-19T03:51:21.033Z,79781.22
2023-02-19T03:53:18.594Z,79769.34
2023-02-19T03:55:03.510Z,79753.53
2023-02-19T03:56:40.997Z,79745.59
2023-02-19T03:58:38.950Z,79737.69
2023-02-19T04:00:22.621Z,79745.59
2023-02-19T04:02:06.635Z,79731.75
2023-02-19T04:04:03.368Z,79700.09
2023-02-19T04:05:43.469Z,79684.25
2023-02-19T04:07:16.824Z,79690.19
2023-02-19T04:08:54.723Z,79670.41
2023-02-19T04:10:30.012Z,79662.50
2023-02-19T04:12:05.539Z,79646.66
2023-02-19T04:13:44.983Z,79646.66
2023-02-19T04:15:28.046Z,79646.66
2023-02-19T04:17:05.467Z,79818.81
2023-02-19T04:18:41.613Z,79626.88
2023-02-19T04:20:16.247Z,79816.84
2023-02-19T04:21:51.727Z,79609.06
2023-02-19T04:23:29.534Z,79577.41
2023-02-19T04:25:02.717Z,79547.72
2023-02-19T04:26:36.410Z,79512.09
2023-02-19T04:28:09.924Z,79460.66
2023-02-19T04:29:43.297Z,79405.25
2023-02-19T04:31:16.452Z,79343.91
2023-02-19T04:32:49.479Z,79292.44
2023-02-19T04:34:22.443Z,79292.44
2023-02-19T04:35:55.500Z,79244.97
2023-02-19T04:37:28.510Z,79189.56
2023-02-19T04:39:01.542Z,79120.31
2023-02-19T04:40:34.547Z,79094.59
2023-02-19T04:42:07.401Z,79177.69
2023-02-19T04:43:40.484Z,79080.72
2023-02-19T04:45:13.498Z,79090.63
2023-02-19T04:46:46.365Z,79092.59
2023-02-19T04:48:19.221Z,79066.88
2023-02-19T04:49:52.283Z,79070.84
2023-02-19T04:51:25.666Z,79009.50
2023-02-19T04:52:58.644Z,79100.53
2023-02-19T04:54:31.523Z,78944.22
2023-02-19T04:56:13.479Z,78926.41
2023-02-19T04:57:46.752Z,78906.63
2023-02-19T04:59:19.746Z,78863.09
2023-02-19T05:00:53.355Z,78791.88
2023-02-19T05:02:26.393Z,78783.94
2023-02-19T05:03:59.762Z,78671.19
2023-02-19T05:05:32.604Z,78671.19
2023-02-19T05:07:05.531Z,78696.91
2023-02-19T05:08:38.863Z,78599.94
2023-02-19T05:10:11.984Z,78576.22
2023-02-19T05:11:44.864Z,78544.56
2023-02-19T05:13:17.939Z,78637.53
2023-02-19T05:14:51.197Z,78552.47
2023-02-19T05:16:24.303Z,78550.50
2023-02-19T05:17:57.210Z,78506.97
2023-02-19T05:19:30.186Z,78475.31
2023-02-19T05:21:03.574Z,78455.53
2023-02-19T05:22:36.758Z,78410.03
2023-02-19T05:24:09.895Z,78398.16
2023-02-19T05:25:42.916Z,78419.94
2023-02-19T05:27:15.961Z,78396.19
2023-02-19T05:28:52.577Z,78368.50
2023-02-19T05:30:25.494Z,78358.59
2023-02-19T05:31:58.363Z,78340.78
2023-02-19T05:33:31.404Z,78340.78
2023-02-19T05:35:04.945Z,78323.00
2023-02-19T05:36:38.135Z,78281.44
2023-02-19T05:38:12.245Z,78249.78
2023-02-19T05:39:45.250Z,78202.31
2023-02-19T05:41:21.416Z,78170.66
2023-02-19T05:42:54.248Z,78166.72
2023-02-19T05:44:27.191Z,78127.16
2023-02-19T05:46:00.354Z,78055.94
2023-02-19T05:47:33.548Z,78075.72
2023-02-19T05:49:06.499Z,78048.03
2023-02-19T05:50:39.992Z,77990.66
2023-02-19T05:52:18.943Z,77960.97
2023-02-19T05:53:52.536Z,77980.78
2023-02-19T05:55:25.457Z,77931.31
2023-02-19T05:56:58.644Z,77945.16
2023-02-19T05:58:31.696Z,77978.78
2023-02-19T06:00:05.215Z,77933.28
2023-02-19T06:01:45.592Z,77972.84
2023-02-19T06:03:18.769Z,78032.19
2023-02-19T06:04:51.894Z,77984.72
2023-02-19T06:06:25.310Z,77988.69
2023-02-19T06:07:58.186Z,77905.59
2023-02-19T06:09:32.666Z,77866.03
2023-02-19T06:11:05.825Z,77864.06
2023-02-19T06:12:39.653Z,77830.44
2023-02-19T06:14:15.699Z,77850.22
2023-02-19T06:15:48.605Z,77866.03
2023-02-19T06:17:21.828Z,77796.81
2023-02-19T06:18:54.827Z,77777.03
2023-02-19T06:20:27.993Z,77761.22
2023-02-19T06:22:00.973Z,77759.22
2023-02-19T06:23:34.251Z,77737.47
2023-02-19T06:25:08.407Z,77723.63
2023-02-19T06:26:41.257Z,77808.69
2023-02-19T06:28:14.116Z,77745.38
2023-02-19T06:29:47.290Z,77755.28
2023-02-19T06:31:23.657Z,77755.28
2023-02-19T06:32:56.546Z,77763.19
2023-02-19T06:34:29.599Z,77767.13
2023-02-19T06:36:04.516Z,77779.00
2023-02-19T06:37:37.677Z,77786.91
2023-02-19T06:39:10.952Z,77802.75
2023-02-19T06:40:43.874Z,77792.84
2023-02-19T06:42:16.928Z,77782.97
2023-02-19T06:43:50.065Z,77868.00
2023-02-19T06:45:23.037Z,77848.25
2023-02-19T06:46:56.335Z,77862.09
2023-02-19T06:48:30.651Z,77887.78
2023-02-19T06:50:03.850Z,77877.91
2023-02-19T06:51:36.726Z,77905.59
2023-02-19T06:53:11.629Z,77917.47
2023-02-19T06:54:44.739Z,77953.06
2023-02-19T06:56:25.649Z,77955.06
2023-02-19T06:57:58.741Z,77959.00
2023-02-19T06:59:31.687Z,77994.63
2023-02-19T07:01:04.829Z,78012.41
2023-02-19T07:02:37.795Z,78030.22
2023-02-19T07:04:11.528Z,78061.88
2023-02-19T07:05:44.502Z,78087.59
2023-02-19T07:07:17.662Z,78097.47
2023-02-19T07:08:51.002Z,78109.34
2023-02-19T07:10:24.764Z,78071.75
2023-02-19T07:12:02.449Z,78053.97
2023-02-19T07:13:35.590Z,78091.53
2023-02-19T07:15:09.007Z,78087.59
2023-02-19T07:16:41.981Z,78079.66
2023-02-19T07:18:14.911Z,78115.28
2023-02-19T07:19:47.982Z,78107.38
2023-02-19T07:21:20.903Z,78148.91
2023-02-19T07:22:53.929Z,78137.03
2023-02-19T07:24:27.111Z,78103.41
2023-02-19T07:26:00.747Z,78137.03
2023-02-19T07:27:33.762Z,78152.88
2023-02-19T07:29:07.781Z,78123.19
2023-02-19T07:30:40.734Z,78129.13
2023-02-19T07:32:13.651Z,78174.63
2023-02-19T07:33:47.960Z,78119.22
2023-02-19T07:35:20.854Z,78139.03
2023-02-19T07:36:53.696Z,78131.09
2023-02-19T07:38:27.496Z,78131.09
2023-02-19T07:40:00.417Z,78131.09
2023-02-19T07:41:33.308Z,78146.94
2023-02-19T07:43:06.146Z,78142.97
2023-02-19T07:44:39.279Z,78152.88
2023-02-19T07:46:14.201Z,78162.75
2023-02-19T07:47:47.162Z,78146.94
2023-02-19T07:49:20.026Z,78141.00
2023-02-19T07:50:54.563Z,78142.97
2023-02-19T07:52:28.133Z,78144.94
2023-02-19T07:54:00.946Z,78117.25
2023-02-19T07:55:34.691Z,78117.25
2023-02-19T07:57:14.463Z,78105.38
2023-02-19T07:58:47.662Z,78089.56
2023-02-19T08:00:20.663Z,78083.63
2023-02-19T08:02:11.968Z,78057.91
2023-02-19T08:03:46.125Z,78048.03
2023-02-19T08:05:20.019Z,78036.16
2023-02-19T08:06:53.788Z,78018.34
2023-02-19T08:08:26.626Z,77984.72
2023-02-19T08:10:22.555Z,77992.63
2023-02-19T08:12:14.436Z,77937.25
2023-02-19T08:13:50.432Z,77927.34
2023-02-19T08:15:23.549Z,77959.00
2023-02-19T08:16:57.322Z,77925.38
2023-02-19T08:18:32.707Z,78000.53
2023-02-19T08:20:05.776Z,77988.69
2023-02-19T08:21:38.837Z,77982.75
2023-02-19T08:23:12.752Z,77976.81
2023-02-19T08:24:45.681Z,78006.47
2023-02-19T08:26:18.536Z,77972.84
2023-02-19T08:27:51.625Z,77986.69
2023-02-19T08:29:24.709Z,77917.47
2023-02-19T08:31:03.943Z,78057.91
2023-02-19T08:32:36.815Z,78051.97
2023-02-19T08:34:10.153Z,77976.81
2023-02-19T08:35:43.747Z,77990.66
2023-02-19T08:37:16.701Z,77885.81
2023-02-19T08:38:49.624Z,78053.97
2023-02-19T08:40:23.108Z,78016.38
2023-02-19T08:41:56.296Z,78044.06
2023-02-19T08:43:29.168Z,77947.13
2023-02-19T08:45:02.063Z,77937.25
2023-02-19T08:46:36.622Z,77935.28
2023-02-19T08:48:09.964Z,77953.06
2023-02-19T08:49:42.909Z,77913.50
2023-02-19T08:51:15.971Z,77909.56
2023-02-19T08:52:49.080Z,77917.47
2023-02-19T08:54:22.071Z,77927.34
2023-02-19T08:55:55.219Z,77925.38
2023-02-19T08:57:29.491Z,77899.66
2023-02-19T08:59:02.737Z,77927.34
2023-02-19T09:00:35.743Z,77893.72
2023-02-19T09:02:10.233Z,77885.81
2023-02-19T09:03:43.290Z,77899.66
2023-02-19T09:05:17.314Z,77905.59
2023-02-19T09:06:50.423Z,77909.56
2023-02-19T09:08:23.386Z,77887.78
2023-02-19T09:09:56.293Z,77889.78
2023-02-19T09:11:29.320Z,77887.78
2023-02-19T09:13:02.938Z,77879.88
2023-02-19T09:14:37.190Z,77885.81
2023-02-19T09:16:10.798Z,77873.94
2023-02-19T09:17:43.847Z,77870.00
2023-02-19T09:19:17.052Z,77866.03
2023-02-19T09:20:50.546Z,77866.03
2023-02-19T09:22:23.556Z,77846.25
2023-02-19T09:23:56.748Z,77870.00
2023-02-19T09:25:29.893Z,77858.13
2023-02-19T09:27:02.922Z,77862.09
2023-02-19T09:28:36.801Z,77854.16
2023-02-19T09:30:10.091Z,77834.38
2023-02-19T09:31:43.265Z,77820.53
2023-02-19T09:33:16.143Z,77862.09
2023-02-19T09:34:50.263Z,77848.25
2023-02-19T09:36:23.177Z,77854.16
2023-02-19T09:37:59.312Z,77858.13
2023-02-19T09:39:32.246Z,77838.34
2023-02-19T09:41:46.802Z,77848.25
2023-02-19T09:43:22.548Z,77846.25
2023-02-19T09:44:58.584Z,77840.31
2023-02-19T09:46:40.430Z,77834.38
2023-02-19T09:48:13.627Z,77850.22
2023-02-19T09:49:52.410Z,77854.16
2023-02-19T09:51:28.842Z,77842.31
2023-02-19T09:53:06.178Z,77848.25
2023-02-19T09:54:41.147Z,77868.00
2023-02-19T09:56:14.192Z,77836.38
2023-02-19T09:57:49.025Z,77826.47
2023-02-19T09:59:27.233Z,77810.66
2023-02-19T10:01:03.093Z,77804.72
2023-02-19T10:02:36.145Z,77798.78
2023-02-19T10:04:10.720Z,77830.44
2023-02-19T10:05:44.035Z,77826.47
2023-02-19T10:07:23.132Z,77834.38
2023-02-19T10:09:16.807Z,77852.19
2023-02-19T10:10:49.872Z,77889.78
2023-02-19T10:12:30.489Z,77889.78
2023-02-19T10:14:14.135Z,77907.56
2023-02-19T10:16:17.779Z,77899.66
2023-02-19T10:17:50.766Z,77945.16
2023-02-19T10:19:23.802Z,77939.22
2023-02-19T10:20:57.937Z,77986.69
2023-02-19T10:22:33.060Z,77949.13
2023-02-19T10:24:07.726Z,77941.22
2023-02-19T10:25:46.888Z,77925.38
2023-02-19T10:27:20.191Z,77929.34
2023-02-19T10:28:54.622Z,77982.75
2023-02-19T10:30:34.056Z,78131.09
2023-02-19T10:32:18.980Z,77998.56
2023-02-19T10:33:57.443Z,78002.53
2023-02-19T10:35:31.603Z,78048.03
2023-02-19T10:37:04.786Z,78053.97
2023-02-19T10:38:41.035Z,78067.81
2023-02-19T10:40:29.019Z,78079.66
2023-02-19T10:42:02.841Z,78075.72
2023-02-19T10:43:40.468Z,78101.44
2023-02-19T10:45:26.048Z,78093.53
2023-02-19T10:47:01.340Z,78119.22
2023-02-19T10:48:47.639Z,78261.66
2023-02-19T10:50:31.572Z,78150.88
2023-02-19T10:52:18.115Z,78158.78
2023-02-19T10:54:03.243Z,78166.72
2023-02-19T10:55:38.091Z,78178.56
2023-02-19T10:57:19.804Z,78220.13
2023-02-19T10:58:53.514Z,78228.03
2023-02-19T11:00:30.933Z,78176.59
2023-02-19T11:02:17.426Z,78233.97
2023-02-19T11:04:16.315Z,78198.34
2023-02-19T11:06:02.950Z,78154.84
2023-02-19T11:07:45.114Z,78166.72
2023-02-19T11:09:32.487Z,78150.88
2023-02-19T11:11:05.562Z,78144.94
2023-02-19T11:12:38.405Z,78142.97
2023-02-19T11:14:24.297Z,78224.06
2023-02-19T11:15:58.220Z,78162.75
2023-02-19T11:17:31.440Z,78107.38
2023-02-19T11:19:04.446Z,78135.06
2023-02-19T11:20:37.680Z,78200.34
2023-02-19T11:22:34.886Z,78194.41
2023-02-19T11:24:31.172Z,78210.22
2023-02-19T11:26:07.217Z,78230.00
2023-02-19T11:27:54.515Z,78249.78
2023-02-19T11:29:29.073Z,78247.81
2023-02-19T11:31:22.434Z,78257.72
2023-02-19T11:32:55.193Z,78255.72
2023-02-19T11:34:30.574Z,78263.63
2023-02-19T11:36:18.691Z,78249.78
2023-02-19T11:37:59.067Z,78265.63
2023-02-19T11:39:32.417Z,78259.69
2023-02-19T11:41:19.465Z,78257.72
2023-02-19T11:43:21.206Z,78291.34
2023-02-19T11:45:27.486Z,78267.59
2023-02-19T11:47:30.982Z,78297.28
2023-02-19T11:49:29.624Z,78297.28
2023-02-19T11:51:14.575Z,78287.38
2023-02-19T11:52:47.349Z,78299.25
2023-02-19T11:55:01.519Z,78332.88
2023-02-19T11:56:43.505Z,78328.94
2023-02-19T11:58:41.299Z,78356.63
2023-02-19T12:00:26.251Z,78368.50
2023-02-19T12:01:59.488Z,78372.44
2023-02-19T12:04:04.667Z,78402.13
2023-02-19T12:05:48.958Z,78425.84
2023-02-19T12:07:57.843Z,78419.94
2023-02-19T12:09:33.497Z,78439.72
2023-02-19T12:11:22.700Z,78483.22
2023-02-19T12:13:04.615Z,78483.22
2023-02-19T12:14:55.974Z,78489.16
2023-02-19T12:16:50.715Z,78518.84
2023-02-19T12:18:37.600Z,78536.66
2023-02-19T12:20:31.418Z,78508.94
2023-02-19T12:22:20.061Z,78518.84
2023-02-19T12:24:16.140Z,78512.91
2023-02-19T12:26:00.729Z,78518.84
2023-02-19T12:27:46.094Z,78538.63
2023-02-19T12:29:56.537Z,78534.66
2023-02-19T12:31:41.123Z,78556.44
2023-02-19T12:33:32.712Z,78550.50
2023-02-19T12:35:15.039Z,78562.38
2023-02-19T12:37:03.379Z,78597.97
2023-02-19T12:38:54.217Z,78627.66
2023-02-19T12:41:12.111Z,78675.13
2023-02-19T12:43:03.087Z,78679.09
2023-02-19T12:44:55.554Z,78675.13
2023-02-19T12:46:40.991Z,78742.41
2023-02-19T12:48:29.057Z,78726.56
2023-02-19T12:50:24.168Z,78726.56
2023-02-19T12:52:03.660Z,78728.56
2023-02-19T12:53:42.393Z,78752.28
2023-02-19T12:55:36.549Z,78772.06
2023-02-19T12:57:09.446Z,78768.13
2023-02-19T12:58:51.020Z,78884.84
2023-02-19T13:00:42.444Z,78795.81
2023-02-19T13:02:34.002Z,78807.69
2023-02-19T13:04:19.064Z,78833.41
2023-02-19T13:05:56.066Z,78874.97
2023-02-19T13:07:58.211Z,78869.03
2023-02-19T13:09:54.193Z,78874.97
2023-02-19T13:11:45.081Z,78874.97
2023-02-19T13:13:27.982Z,78884.84
2023-02-19T13:15:39.018Z,78906.63
2023-02-19T13:17:41.805Z,78930.34
2023-02-19T13:19:17.740Z,78936.28
2023-02-19T13:20:52.041Z,78964.00
2023-02-19T13:22:59.292Z,79082.72
2023-02-19T13:24:36.905Z,78962.00
2023-02-19T13:26:39.202Z,78971.91
2023-02-19T13:28:42.427Z,78993.66
2023-02-19T13:30:40.224Z,79108.44
2023-02-19T13:32:37.807Z,79007.53
2023-02-19T13:34:10.596Z,79021.38
2023-02-19T13:36:06.493Z,79007.53
2023-02-19T13:37:39.615Z,79003.56
2023-02-19T13:39:17.507Z,79005.53
2023-02-19T13:40:56.352Z,78993.66
2023-02-19T13:42:34.603Z,79001.59
2023-02-19T13:44:17.468Z,79009.50
2023-02-19T13:45:57.140Z,79023.34
2023-02-19T13:47:49.433Z,79029.28
2023-02-19T13:49:29.635Z,79011.47
2023-02-19T13:51:28.422Z,79009.50
2023-02-19T13:53:22.609Z,79003.56
2023-02-19T13:55:34.060Z,79001.59
2023-02-19T13:57:18.659Z,78979.81
2023-02-19T13:58:58.613Z,78975.88
2023-02-19T14:00:55.246Z,78962.00
2023-02-19T14:02:32.217Z,78960.03
2023-02-19T14:04:18.859Z,78944.22
2023-02-19T14:06:00.679Z,78936.28
2023-02-19T14:07:55.243Z,78938.28
2023-02-19T14:09:37.709Z,78932.34
2023-02-19T14:11:14.543Z,78920.47
2023-02-19T14:12:47.641Z,78906.63
2023-02-19T14:14:23.456Z,78871.00
2023-02-19T14:15:56.562Z,78833.41
2023-02-19T14:17:46.015Z,78787.91
2023-02-19T14:19:43.435Z,78766.13
2023-02-19T14:21:41.218Z,78732.50
2023-02-19T14:23:32.084Z,78708.75
2023-02-19T14:25:19.244Z,78688.97
2023-02-19T14:26:52.580Z,78683.03
2023-02-19T14:28:45.272Z,78681.06
2023-02-19T14:30:18.568Z,78661.28
2023-02-19T14:31:51.659Z,78649.41
2023-02-19T14:33:46.857Z,78647.44
2023-02-19T14:35:21.828Z,78645.47
2023-02-19T14:37:02.144Z,78718.66
2023-02-19T14:38:45.927Z,78631.59
2023-02-19T14:40:24.456Z,78629.63
2023-02-19T14:42:03.074Z,78629.63
2023-02-19T14:43:37.740Z,78625.66
2023-02-19T14:45:10.675Z,78621.72
2023-02-19T14:46:53.183Z,78621.72
2023-02-19T14:48:37.930Z,78615.78
2023-02-19T14:50:26.069Z,78619.75
2023-02-19T14:52:04.505Z,78687.00
2023-02-19T14:53:45.067Z,78623.69
2023-02-19T14:55:23.933Z,78621.72
2023-02-19T14:56:58.692Z,78621.72
2023-02-19T14:58:34.279Z,78621.72
2023-02-19T15:00:22.018Z,78621.72
2023-02-19T15:02:16.317Z,78617.75
2023-02-19T15:03:50.204Z,78621.72
2023-02-19T15:05:26.894Z,78615.78
2023-02-19T15:07:03.655Z,78613.81
2023-02-19T15:08:40.474Z,78613.81
2023-02-19T15:10:15.729Z,78613.81
2023-02-19T15:11:49.405Z,78609.84
2023-02-19T15:13:27.444Z,78613.81
2023-02-19T15:15:03.302Z,78607.88
2023-02-19T15:16:37.413Z,78611.81
2023-02-19T15:18:19.912Z,78607.88
2023-02-19T15:19:53.423Z,78601.94
2023-02-19T15:21:30.233Z,78601.94
2023-02-19T15:23:07.931Z,78590.06
2023-02-19T15:24:48.239Z,78594.03
2023-02-19T15:26:24.559Z,78596.00
2023-02-19T15:28:17.719Z,78594.03
2023-02-19T15:29:53.584Z,78588.09
2023-02-19T15:31:26.939Z,78609.84
2023-02-19T15:33:01.010Z,78605.88
2023-02-19T15:34:34.425Z,78590.06
2023-02-19T15:36:09.853Z,78596.00
2023-02-19T15:37:42.956Z,78596.00
2023-02-19T15:39:33.745Z,78590.06
2023-02-19T15:41:06.889Z,78592.03
2023-02-19T15:42:39.801Z,78597.97
2023-02-19T15:44:48.674Z,78594.03
2023-02-19T15:46:25.217Z,78663.25
2023-02-19T15:48:07.689Z,78599.94
2023-02-19T15:49:51.512Z,78597.97
2023-02-19T15:51:50.895Z,78594.03
2023-02-19T15:53:27.470Z,78605.88
2023-02-19T15:55:13.107Z,78605.88
2023-02-19T15:56:50.677Z,78601.94
2023-02-19T15:58:32.464Z,78605.88
2023-02-19T16:00:21.426Z,78712.72
2023-02-19T16:01:54.631Z,78609.84
2023-02-19T16:03:29.965Z,78615.78
2023-02-19T16:05:13.443Z,78607.88
2023-02-19T16:07:00.777Z,78601.94
2023-02-19T16:08:36.414Z,78605.88
2023-02-19T16:10:24.313Z,78601.94
2023-02-19T16:12:00.322Z,78599.94
2023-02-19T16:13:35.106Z,78716.69
2023-02-19T16:15:15.263Z,78592.03
2023-02-19T16:16:51.893Z,78588.09
2023-02-19T16:18:25.085Z,78588.09
2023-02-19T16:20:01.260Z,78578.19
2023-02-19T16:21:34.399Z,78570.28
2023-02-19T16:23:17.756Z,78611.81
2023-02-19T16:24:54.128Z,78570.28
2023-02-19T16:26:28.292Z,78582.16
2023-02-19T16:28:14.398Z,78580.16
2023-02-19T16:29:52.112Z,78578.19
2023-02-19T16:31:25.654Z,78582.16
2023-02-19T16:33:20.348Z,78584.13
2023-02-19T16:34:53.571Z,78586.09
2023-02-19T16:36:37.248Z,78578.19
2023-02-19T16:38:17.648Z,78582.16
2023-02-19T16:40:16.686Z,78586.09
2023-02-19T16:41:49.779Z,78592.03
2023-02-19T16:43:31.923Z,78590.06
2023-02-19T16:45:08.405Z,78582.16
2023-02-19T16:46:42.736Z,78578.19
2023-02-19T16:48:16.042Z,78576.22
2023-02-19T16:49:49.012Z,78574.22
2023-02-19T16:51:27.502Z,78572.25
2023-02-19T16:53:02.777Z,78562.38
2023-02-19T16:54:35.728Z,78572.25
2023-02-19T16:56:18.877Z,78564.34
2023-02-19T16:57:52.234Z,78566.31
2023-02-19T16:59:25.281Z,78556.44
2023-02-19T17:00:58.347Z,78643.47
2023-02-19T17:02:33.624Z,78562.38
2023-02-19T17:04:12.684Z,78558.41
2023-02-19T17:05:46.731Z,78562.38
2023-02-19T17:07:19.935Z,78556.44
2023-02-19T17:08:52.870Z,78558.41
2023-02-19T17:10:28.181Z,78738.44
2023-02-19T17:12:01.880Z,78562.38
2023-02-19T17:13:34.804Z,78554.44
2023-02-19T17:15:08.035Z,78550.50
2023-02-19T17:16:41.389Z,78550.50
2023-02-19T17:18:14.836Z,78546.53
2023-02-19T17:19:47.739Z,78544.56
2023-02-19T17:21:23.429Z,78542.59
2023-02-19T17:22:57.302Z,78609.84
2023-02-19T17:24:30.416Z,78538.63
2023-02-19T17:26:03.682Z,78546.53
2023-02-19T17:27:37.043Z,78540.59
2023-02-19T17:29:15.271Z,78542.59
2023-02-19T17:30:48.350Z,78542.59
2023-02-19T17:32:21.316Z,78538.63
2023-02-19T17:33:54.609Z,78538.63
2023-02-19T17:35:28.083Z,78641.50
2023-02-19T17:37:01.308Z,78530.72
2023-02-19T17:38:34.198Z,78530.72
2023-02-19T17:40:31.846Z,78526.75
2023-02-19T17:42:06.469Z,78526.75
2023-02-19T17:43:39.449Z,78514.88
2023-02-19T17:45:12.330Z,78528.72
2023-02-19T17:46:48.138Z,78534.66
2023-02-19T17:48:21.411Z,78532.69
2023-02-19T17:49:54.582Z,78530.72
2023-02-19T17:51:27.389Z,78534.66
2023-02-19T17:53:00.392Z,78536.66
2023-02-19T17:54:34.732Z,78542.59
2023-02-19T17:56:08.331Z,78542.59
2023-02-19T17:57:41.242Z,78538.63
2023-02-19T17:59:14.129Z,78550.50
2023-02-19T18:00:47.458Z,78542.59
2023-02-19T18:02:20.379Z,78548.50
2023-02-19T18:03:53.428Z,78538.63
2023-02-19T18:05:26.341Z,78538.63
2023-02-19T18:06:59.750Z,78542.59
2023-02-19T18:08:32.785Z,78532.69
2023-02-19T18:10:07.449Z,78534.66
2023-02-19T18:11:44.192Z,78530.72
2023-02-19T18:13:17.596Z,78530.72
2023-02-19T18:14:50.496Z,78520.81
2023-02-19T18:16:23.495Z,78518.84
2023-02-19T18:17:57.394Z,78518.84
2023-02-19T18:19:30.634Z,78514.88
2023-02-19T18:21:04.262Z,78516.88
2023-02-19T18:22:40.185Z,78512.91
2023-02-19T18:24:13.069Z,78508.94
2023-02-19T18:25:47.681Z,78518.84
2023-02-19T18:27:20.993Z,78510.94
2023-02-19T18:28:54.066Z,78510.94
2023-02-19T18:30:28.821Z,78508.94
2023-02-19T18:32:02.389Z,78508.94
2023-02-19T18:33:35.729Z,78506.97
2023-02-19T18:35:09.001Z,78503.00
2023-02-19T18:36:45.764Z,78499.06
2023-02-19T18:38:19.394Z,78493.13
2023-02-19T18:39:54.264Z,78495.09
2023-02-19T18:41:27.170Z,78495.09
2023-02-19T18:43:00.315Z,78499.06
2023-02-19T18:44:33.415Z,78489.16
2023-02-19T18:46:09.592Z,78497.06
2023-02-19T18:47:42.463Z,78491.16
2023-02-19T18:49:16.481Z,78485.22
2023-02-19T18:50:49.787Z,78485.22
2023-02-19T18:52:25.196Z,78645.47
2023-02-19T18:53:58.741Z,78469.38
2023-02-19T18:55:31.717Z,78467.41
2023-02-19T18:57:05.082Z,78467.41
2023-02-19T18:58:37.849Z,78463.44
2023-02-19T19:00:19.967Z,78453.56
2023-02-19T19:01:53.535Z,78526.75
2023-02-19T19:03:26.872Z,78441.69
2023-02-19T19:04:59.764Z,78449.59
2023-02-19T19:06:32.824Z,78439.72
2023-02-19T19:08:05.918Z,78441.69
2023-02-19T19:09:39.032Z,78429.81
2023-02-19T19:11:12.158Z,78419.94
2023-02-19T19:12:45.206Z,78415.97
2023-02-19T19:14:18.314Z,78415.97
2023-02-19T19:15:51.897Z,78410.03
2023-02-19T19:17:24.761Z,78455.53